createdAt,value
2023-01-17T00:00:34.167Z,3.46
2023-01-17T00:05:56.070Z,3.46
2023-01-17T00:11:17.992Z,3.50
2023-01-17T00:16:39.823Z,3.49
2023-01-17T00:22:08.460Z,3.50
2023-01-17T00:27:31.111Z,3.49
2023-01-17T00:32:53.115Z,3.67
2023-01-17T00:38:21.917Z,3.57
2023-01-17T00:43:43.770Z,3.57
2023-01-17T00:49:06.735Z,3.45
2023-01-17T00:54:28.645Z,3.65
2023-01-17T00:59:50.749Z,3.52
2023-01-17T01:05:13.990Z,3.76
2023-01-17T01:10:36.169Z,3.83
2023-01-17T01:16:02.370Z,3.89
2023-01-17T01:21:24.364Z,3.96
2023-01-17T01:26:46.225Z,3.91
2023-01-17T01:32:08.119Z,3.86
2023-01-17T01:37:31.654Z,3.95
2023-01-17T01:42:59.760Z,4.00
2023-01-17T01:48:39.648Z,3.91
2023-01-17T01:54:08.108Z,4.06
2023-01-17T01:59:32.236Z,4.06
2023-01-17T02:04:54.155Z,3.98
2023-01-17T02:10:16.418Z,4.06
2023-01-17T02:16:06.268Z,4.06
2023-01-17T02:21:34.652Z,4.16
2023-01-17T02:27:04.359Z,4.18
2023-01-17T02:32:45.091Z,4.17
2023-01-17T02:38:16.415Z,4.21
2023-01-17T02:43:39.683Z,4.10
2023-01-17T02:49:01.681Z,4.29
2023-01-17T02:54:42.073Z,4.23
2023-01-17T03:00:23.190Z,4.15
2023-01-17T03:06:03.195Z,4.11
2023-01-17T03:11:25.140Z,4.15
2023-01-17T03:16:47.563Z,4.16
2023-01-17T03:22:09.583Z,4.30
2023-01-17T03:27:31.540Z,4.15
2023-01-17T03:32:53.403Z,4.22
2023-01-17T03:38:15.641Z,4.16
2023-01-17T03:43:37.510Z,4.21
2023-01-17T03:48:59.415Z,4.09
2023-01-17T03:54:21.284Z,4.12
2023-01-17T03:59:43.134Z,4.17
2023-01-17T04:05:05.338Z,4.12
2023-01-17T04:10:27.260Z,4.16
2023-01-17T04:15:51.125Z,4.01
2023-01-17T04:21:13.101Z,4.01
2023-01-17T04:26:35.005Z,4.11
2023-01-17T04:31:56.961Z,4.15
2023-01-17T04:37:18.895Z,4.16
2023-01-17T04:42:41.286Z,4.04
2023-01-17T04:48:06.945Z,4.13
2023-01-17T04:53:28.799Z,4.23
2023-01-17T04:58:50.774Z,4.30
2023-01-17T05:04:12.616Z,4.18
2023-01-17T05:09:34.451Z,4.23
2023-01-17T05:14:56.338Z,4.20
2023-01-17T05:20:19.205Z,4.22
2023-01-17T05:25:41.078Z,4.20
2023-01-17T05:31:02.933Z,4.29
2023-01-17T05:36:24.938Z,4.16
2023-01-17T05:41:46.788Z,4.08
2023-01-17T05:47:08.719Z,3.87
2023-01-17T05:52:30.586Z,3.86
2023-01-17T05:57:52.770Z,3.77
2023-01-17T06:03:15.306Z,3.82
2023-01-17T06:08:37.159Z,3.82
2023-01-17T06:13:59.039Z,3.73
2023-01-17T06:19:21.000Z,3.86
2023-01-17T06:24:42.826Z,3.74
2023-01-17T06:30:05.342Z,3.77
2023-01-17T06:35:27.388Z,3.72
2023-01-17T06:40:49.649Z,3.64
2023-01-17T06:46:11.615Z,3.61
2023-01-17T06:51:33.538Z,3.57
2023-01-17T06:56:55.456Z,3.77
2023-01-17T07:02:17.282Z,3.85
2023-01-17T07:07:39.131Z,4.63
2023-01-17T07:13:00.990Z,4.80
2023-01-17T07:18:22.816Z,6.45
2023-01-17T07:23:44.655Z,7.48
2023-01-17T07:29:06.676Z,7.40
2023-01-17T07:34:28.751Z,8.10
2023-01-17T07:39:50.739Z,8.25
2023-01-17T07:45:14.939Z,10.34
2023-01-17T07:50:37.279Z,8.56
2023-01-17T07:56:03.960Z,7.78
2023-01-17T08:01:25.920Z,8.24
2023-01-17T08:06:47.823Z,9.03
2023-01-17T08:12:10.146Z,12.18
2023-01-17T08:17:31.970Z,13.80
2023-01-17T08:22:55.487Z,13.74
2023-01-17T08:28:17.465Z,14.91
2023-01-17T08:33:39.279Z,14.36
2023-01-17T08:39:01.247Z,12.28
2023-01-17T08:44:23.514Z,11.34
2023-01-17T08:49:45.316Z,10.55
2023-01-17T08:55:07.791Z,9.13
2023-01-17T09:00:29.729Z,8.06
2023-01-17T09:06:02.745Z,7.57
2023-01-17T09:11:24.743Z,6.87
2023-01-17T09:16:46.646Z,6.52
2023-01-17T09:22:08.459Z,6.11
2023-01-17T09:27:30.372Z,6.00
2023-01-17T09:32:54.310Z,5.97
2023-01-17T09:38:16.911Z,5.90
2023-01-17T09:43:47.997Z,5.88
2023-01-17T09:49:26.386Z,5.79
2023-01-17T09:54:49.813Z,5.67
2023-01-17T10:00:29.629Z,5.90
2023-01-17T10:06:13.165Z,5.59
2023-01-17T10:11:42.201Z,5.52
2023-01-17T10:17:34.585Z,5.47
2023-01-17T10:23:02.326Z,5.84
2023-01-17T10:28:47.913Z,5.86
2023-01-17T10:34:21.837Z,5.82
2023-01-17T10:39:46.492Z,5.87
2023-01-17T10:45:22.370Z,5.95
2023-01-17T10:51:14.163Z,6.00
2023-01-17T10:56:39.346Z,5.95
2023-01-17T11:02:02.209Z,5.97
2023-01-17T11:07:26.252Z,5.93
2023-01-17T11:12:48.275Z,6.04
2023-01-17T11:18:16.901Z,5.87
2023-01-17T11:23:41.934Z,5.87
2023-01-17T11:29:34.175Z,5.87
2023-01-17T11:35:22.268Z,5.78
2023-01-17T11:40:45.217Z,5.35
2023-01-17T11:46:18.603Z,5.56
2023-01-17T11:51:42.371Z,5.60
2023-01-17T11:57:04.837Z,5.42
2023-01-17T12:02:44.954Z,5.71
2023-01-17T12:08:14.121Z,5.70
2023-01-17T12:14:01.328Z,5.74
2023-01-17T12:19:32.893Z,5.57
2023-01-17T12:25:22.954Z,5.59
2023-01-17T12:31:23.455Z,5.16
2023-01-17T12:36:57.289Z,5.50
2023-01-17T12:42:26.233Z,5.40
2023-01-17T12:47:53.555Z,5.50
2023-01-17T12:53:39.573Z,5.46
2023-01-17T12:59:15.345Z,5.47
2023-01-17T13:04:58.037Z,5.70
2023-01-17T13:10:33.811Z,5.64
2023-01-17T13:16:17.376Z,5.76
2023-01-17T13:21:40.916Z,5.99
2023-01-17T13:27:07.079Z,5.88
2023-01-17T13:33:22.790Z,5.77
2023-01-17T13:39:06.205Z,5.74
2023-01-17T13:44:28.911Z,5.66
2023-01-17T13:49:51.590Z,5.60
2023-01-17T13:55:44.465Z,5.57
2023-01-17T14:01:11.406Z,5.54
2023-01-17T14:06:33.257Z,5.51
2023-01-17T14:12:03.972Z,5.46
2023-01-17T14:17:27.530Z,5.41
2023-01-17T14:22:56.452Z,5.35
2023-01-17T14:28:31.703Z,5.21
2023-01-17T14:33:53.543Z,5.12
2023-01-17T14:39:22.237Z,5.07
2023-01-17T14:44:55.520Z,4.96
2023-01-17T14:50:28.894Z,4.86
2023-01-17T14:55:53.279Z,4.77
2023-01-17T15:01:19.997Z,4.80
2023-01-17T15:06:43.935Z,4.59
2023-01-17T15:12:10.287Z,4.50
2023-01-17T15:17:32.278Z,4.53
2023-01-17T15:22:54.434Z,4.43
2023-01-17T15:28:17.481Z,4.38
2023-01-17T15:33:42.851Z,4.32
2023-01-17T15:39:22.287Z,4.15
2023-01-17T15:44:49.144Z,4.18
2023-01-17T15:50:20.690Z,4.09
2023-01-17T15:55:48.232Z,4.04
2023-01-17T16:01:23.817Z,4.01
2023-01-17T16:06:45.768Z,3.92
2023-01-17T16:12:07.604Z,3.94
2023-01-17T16:17:30.286Z,3.81
2023-01-17T16:22:52.566Z,3.78
2023-01-17T16:28:14.563Z,3.68
2023-01-17T16:33:36.532Z,3.70
2023-01-17T16:38:58.566Z,3.50
2023-01-17T16:44:20.415Z,3.41
2023-01-17T16:49:42.276Z,3.36
2023-01-17T16:55:07.205Z,3.35
2023-01-17T17:00:29.031Z,3.24
2023-01-17T17:05:56.602Z,3.21
2023-01-17T17:11:21.258Z,3.08
2023-01-17T17:16:43.082Z,3.04
2023-01-17T17:22:04.982Z,2.90
2023-01-17T17:27:27.099Z,2.91
2023-01-17T17:32:48.921Z,2.89
2023-01-17T17:38:10.736Z,2.84
2023-01-17T17:43:41.449Z,2.83
2023-01-17T17:49:04.297Z,2.87
2023-01-17T17:54:26.156Z,2.78
2023-01-17T17:59:48.035Z,2.73
2023-01-17T18:05:10.095Z,2.60
2023-01-17T18:10:31.999Z,2.60
2023-01-17T18:16:13.544Z,2.46
2023-01-17T18:21:37.613Z,2.40
2023-01-17T18:26:59.537Z,2.31
2023-01-17T18:32:21.353Z,2.17
2023-01-17T18:37:43.191Z,2.01
2023-01-17T18:43:05.182Z,1.91
2023-01-17T18:48:27.292Z,1.74
2023-01-17T18:53:49.215Z,1.76
2023-01-17T18:59:15.433Z,1.76
2023-01-17T19:04:38.000Z,1.76
2023-01-17T19:10:00.184Z,1.58
2023-01-17T19:15:22.142Z,1.55
2023-01-17T19:20:44.867Z,1.63
2023-01-17T19:26:08.416Z,1.57
2023-01-17T19:31:32.053Z,1.68
2023-01-17T19:36:54.362Z,1.56
2023-01-17T19:42:16.336Z,1.68
2023-01-17T19:47:39.010Z,1.71
2023-01-17T19:53:00.888Z,1.72
2023-01-17T19:58:22.769Z,1.61
2023-01-17T20:03:46.598Z,1.62
2023-01-17T20:09:08.450Z,1.66
2023-01-17T20:14:30.341Z,1.62
2023-01-17T20:19:52.218Z,1.54
2023-01-17T20:25:14.140Z,1.58
2023-01-17T20:30:36.019Z,1.61
2023-01-17T20:36:10.756Z,1.54
2023-01-17T20:41:38.630Z,1.63
2023-01-17T20:47:00.562Z,1.61
2023-01-17T20:52:22.497Z,1.58
2023-01-17T20:57:44.388Z,1.59
2023-01-17T21:03:06.345Z,1.57
2023-01-17T21:08:33.383Z,1.59
2023-01-17T21:13:55.335Z,1.56
2023-01-17T21:19:17.293Z,1.53
2023-01-17T21:24:39.282Z,1.56
2023-01-17T21:30:01.321Z,1.44
2023-01-17T21:35:23.603Z,1.55
2023-01-17T21:40:45.839Z,1.54
2023-01-17T21:46:07.764Z,1.45
2023-01-17T21:51:29.706Z,1.45
2023-01-17T21:56:51.872Z,1.44
2023-01-17T22:02:13.854Z,1.47
2023-01-17T22:07:35.887Z,1.53
2023-01-17T22:12:58.263Z,1.50
2023-01-17T22:18:20.157Z,1.53
2023-01-17T22:23:49.335Z,1.49
2023-01-17T22:29:11.368Z,1.60
2023-01-17T22:34:33.237Z,1.53
2023-01-17T22:39:55.127Z,1.56
2023-01-17T22:45:17.172Z,1.56
2023-01-17T22:50:39.114Z,1.56
2023-01-17T22:56:06.669Z,1.61
2023-01-17T23:01:30.553Z,1.63
2023-01-17T23:06:52.435Z,1.74
2023-01-17T23:12:14.290Z,1.69
2023-01-17T23:17:36.113Z,1.83
2023-01-17T23:22:58.301Z,1.81
2023-01-17T23:28:20.475Z,1.83
2023-01-17T23:33:42.374Z,1.94
2023-01-17T23:39:04.258Z,2.00
2023-01-17T23:44:26.116Z,2.12
2023-01-17T23:49:47.975Z,1.96
2023-01-17T23:55:10.368Z,1.97
